createdAt,value
2022-11-16T00:02:10.677Z,9.01
2022-11-16T00:05:08.218Z,8.98
2022-11-16T00:08:05.781Z,8.96
2022-11-16T00:11:05.497Z,8.98
2022-11-16T00:14:03.233Z,8.99
2022-11-16T00:17:01.707Z,8.99
2022-11-16T00:19:59.244Z,8.96
2022-11-16T00:22:56.748Z,8.94
2022-11-16T00:25:54.283Z,8.93
2022-11-16T00:28:51.849Z,8.88
2022-11-16T00:31:49.433Z,8.84
2022-11-16T00:34:47.129Z,8.82
2022-11-16T00:37:44.645Z,8.82
2022-11-16T00:40:42.163Z,8.84
2022-11-16T00:43:39.697Z,8.85
2022-11-16T00:46:37.285Z,8.87
2022-11-16T00:49:34.840Z,8.87
2022-11-16T00:52:32.385Z,8.90
2022-11-16T00:55:29.934Z,8.91
2022-11-16T00:58:29.066Z,8.91
2022-11-16T01:01:27.114Z,8.90
2022-11-16T01:04:24.655Z,8.89
2022-11-16T01:07:22.163Z,8.91
2022-11-16T01:10:19.663Z,8.93
2022-11-16T01:13:17.147Z,8.94
2022-11-16T01:16:14.627Z,8.96
2022-11-16T01:19:12.067Z,8.97
2022-11-16T01:22:09.521Z,8.98
2022-11-16T01:25:07.017Z,9.00
2022-11-16T01:28:04.490Z,9.04
2022-11-16T01:31:01.969Z,9.05
2022-11-16T01:33:59.701Z,9.06
2022-11-16T01:36:57.188Z,9.06
2022-11-16T01:39:54.646Z,9.05
2022-11-16T01:42:52.151Z,9.06
2022-11-16T01:45:49.714Z,9.06
2022-11-16T01:48:47.287Z,9.04
2022-11-16T01:51:44.777Z,9.04
2022-11-16T01:54:42.229Z,9.05
2022-11-16T01:57:39.986Z,9.05
2022-11-16T02:00:37.431Z,9.07
2022-11-16T02:03:34.894Z,9.06
2022-11-16T02:06:32.726Z,9.05
2022-11-16T02:09:47.865Z,9.04
2022-11-16T02:12:45.325Z,9.04
2022-11-16T02:15:42.762Z,9.01
2022-11-16T02:18:40.246Z,8.99
2022-11-16T02:21:37.713Z,8.95
2022-11-16T02:24:35.168Z,8.93
2022-11-16T02:27:32.612Z,8.91
2022-11-16T02:30:30.041Z,8.91
2022-11-16T02:33:27.484Z,8.90
2022-11-16T02:36:24.902Z,8.90
2022-11-16T02:39:22.351Z,8.92
2022-11-16T02:42:19.804Z,8.94
2022-11-16T02:45:17.231Z,8.94
2022-11-16T02:48:14.685Z,8.96
2022-11-16T02:51:12.110Z,8.98
2022-11-16T02:54:11.778Z,8.97
2022-11-16T02:57:09.229Z,8.97
2022-11-16T03:00:06.682Z,8.94
2022-11-16T03:03:04.150Z,8.93
2022-11-16T03:06:01.597Z,8.92
2022-11-16T03:08:59.036Z,8.89
2022-11-16T03:12:04.700Z,8.86
2022-11-16T03:15:02.176Z,8.85
2022-11-16T03:17:59.630Z,8.86
2022-11-16T03:20:57.093Z,8.85
2022-11-16T03:23:54.560Z,8.83
2022-11-16T03:26:52.005Z,8.79
2022-11-16T03:29:49.471Z,8.77
2022-11-16T03:32:46.921Z,8.77
2022-11-16T03:35:44.381Z,8.75
2022-11-16T03:38:41.836Z,8.73
2022-11-16T03:41:39.289Z,8.71
2022-11-16T03:44:36.757Z,8.69
2022-11-16T03:47:34.197Z,8.68
2022-11-16T03:50:31.658Z,8.67
2022-11-16T03:53:29.149Z,8.68
2022-11-16T03:56:26.601Z,8.65
2022-11-16T03:59:24.051Z,8.64
2022-11-16T04:02:21.538Z,8.62
2022-11-16T04:05:36.815Z,8.61
2022-11-16T04:08:52.072Z,8.62
2022-11-16T04:12:07.538Z,8.60
2022-11-16T04:15:22.853Z,8.60
2022-11-16T04:18:38.413Z,8.60
2022-11-16T04:21:53.745Z,8.57
2022-11-16T04:24:51.197Z,8.55
2022-11-16T04:28:06.447Z,8.52
2022-11-16T04:31:21.675Z,8.50
2022-11-16T04:34:36.877Z,8.49
2022-11-16T04:37:49.926Z,8.47
2022-11-16T04:40:48.085Z,8.47
2022-11-16T04:43:45.535Z,8.47
2022-11-16T04:47:00.566Z,8.46
2022-11-16T04:49:58.021Z,8.46
2022-11-16T04:52:55.500Z,8.44
2022-11-16T04:55:56.696Z,8.41
2022-11-16T04:58:59.350Z,8.41
2022-11-16T05:02:09.209Z,8.42
2022-11-16T05:05:06.696Z,8.43
2022-11-16T05:08:04.122Z,8.41
2022-11-16T05:11:01.554Z,8.41
2022-11-16T05:13:59.008Z,8.42
2022-11-16T05:16:56.478Z,8.46
2022-11-16T05:20:11.698Z,8.49
2022-11-16T05:23:29.800Z,8.49
2022-11-16T05:26:27.288Z,8.49
2022-11-16T05:29:24.719Z,8.51
2022-11-16T05:32:22.210Z,8.55
2022-11-16T05:35:19.665Z,8.59
2022-11-16T05:38:17.121Z,8.61
2022-11-16T05:41:14.601Z,8.61
2022-11-16T05:44:12.044Z,8.61
2022-11-16T05:47:09.507Z,8.62
2022-11-16T05:50:06.956Z,8.63
2022-11-16T05:53:04.505Z,8.64
2022-11-16T05:56:02.038Z,8.63
2022-11-16T05:58:59.486Z,8.62
2022-11-16T06:01:57.956Z,8.64
2022-11-16T06:04:55.423Z,8.64
2022-11-16T06:07:52.889Z,8.66
2022-11-16T06:10:50.366Z,8.66
2022-11-16T06:13:47.814Z,8.66
2022-11-16T06:16:45.264Z,8.66
2022-11-16T06:19:42.722Z,8.67
2022-11-16T06:22:40.171Z,8.71
2022-11-16T06:25:37.632Z,8.72
2022-11-16T06:28:35.364Z,8.70
2022-11-16T06:31:33.156Z,8.71
2022-11-16T06:34:30.612Z,8.66
2022-11-16T06:37:28.072Z,8.65
2022-11-16T06:40:25.523Z,8.62
2022-11-16T06:43:22.977Z,8.63
2022-11-16T06:46:20.422Z,8.67
2022-11-16T06:49:17.867Z,8.68
2022-11-16T06:52:15.414Z,8.70
2022-11-16T06:55:12.872Z,8.70
2022-11-16T06:58:10.343Z,8.71
2022-11-16T07:01:07.868Z,8.72
2022-11-16T07:04:05.325Z,8.71
2022-11-16T07:07:02.839Z,8.72
2022-11-16T07:10:00.386Z,8.75
2022-11-16T07:12:57.862Z,8.76
2022-11-16T07:15:55.302Z,8.74
2022-11-16T07:18:52.836Z,8.73
2022-11-16T07:21:50.286Z,8.76
2022-11-16T07:24:47.754Z,8.80
2022-11-16T07:27:45.227Z,8.83
2022-11-16T07:30:42.659Z,8.88
2022-11-16T07:33:40.083Z,8.94
2022-11-16T07:36:37.534Z,8.98
2022-11-16T07:39:34.970Z,8.99
2022-11-16T07:42:32.403Z,9.01
2022-11-16T07:45:29.890Z,9.00
2022-11-16T07:48:27.340Z,9.00
2022-11-16T07:51:24.797Z,9.02
2022-11-16T07:54:22.260Z,9.02
2022-11-16T07:57:19.692Z,9.01
2022-11-16T08:00:17.150Z,9.02
2022-11-16T08:03:14.600Z,9.03
2022-11-16T08:06:12.073Z,9.00
2022-11-16T08:09:09.532Z,8.97
2022-11-16T08:12:07.072Z,8.94
2022-11-16T08:15:04.539Z,8.92
2022-11-16T08:18:02.010Z,8.94
2022-11-16T08:20:59.514Z,8.96
2022-11-16T08:23:58.741Z,9.00
2022-11-16T08:26:58.893Z,9.00
2022-11-16T08:29:56.786Z,9.01
2022-11-16T08:32:54.223Z,9.00
2022-11-16T08:35:51.668Z,9.03
2022-11-16T08:38:49.107Z,9.06
2022-11-16T08:41:46.587Z,9.09
2022-11-16T08:44:44.024Z,9.11
2022-11-16T08:47:41.493Z,9.14
2022-11-16T08:51:09.922Z,9.18
2022-11-16T08:53:56.378Z,9.20
2022-11-16T08:56:53.846Z,9.24
2022-11-16T08:59:51.290Z,9.26
2022-11-16T09:02:48.745Z,9.26
2022-11-16T09:05:47.057Z,9.29
2022-11-16T09:08:44.503Z,9.32
2022-11-16T09:11:41.988Z,9.33
2022-11-16T09:14:39.655Z,9.35
2022-11-16T09:17:37.137Z,9.40
2022-11-16T09:20:34.610Z,9.46
2022-11-16T09:23:32.056Z,9.49
2022-11-16T09:26:30.372Z,9.53
2022-11-16T09:29:28.831Z,9.53
2022-11-16T09:32:26.299Z,9.55
2022-11-16T09:35:24.188Z,9.57
2022-11-16T09:38:30.552Z,9.57
2022-11-16T09:41:37.928Z,9.55
2022-11-16T09:44:35.792Z,9.57
2022-11-16T09:47:33.244Z,9.59
2022-11-16T09:50:30.683Z,9.60
2022-11-16T09:53:28.144Z,9.63
2022-11-16T09:56:25.982Z,9.63
2022-11-16T09:59:23.710Z,9.63
2022-11-16T10:02:21.457Z,9.64
2022-11-16T10:05:18.911Z,9.65
2022-11-16T10:08:16.394Z,9.67
2022-11-16T10:11:13.855Z,9.66
2022-11-16T10:14:11.295Z,9.67
2022-11-16T10:17:08.746Z,9.68
2022-11-16T10:20:06.419Z,9.68
2022-11-16T10:23:04.282Z,9.69
2022-11-16T10:26:01.879Z,9.71
2022-11-16T10:28:59.361Z,9.73
2022-11-16T10:31:56.814Z,9.75
2022-11-16T10:34:54.301Z,9.75
2022-11-16T10:37:51.792Z,9.76
2022-11-16T10:40:49.261Z,9.80
2022-11-16T10:43:46.745Z,9.82
2022-11-16T10:46:44.975Z,9.82
2022-11-16T10:49:42.670Z,9.83
2022-11-16T10:52:40.136Z,9.83
2022-11-16T10:55:37.597Z,9.84
2022-11-16T10:58:35.085Z,9.88
2022-11-16T11:01:32.512Z,9.93
2022-11-16T11:04:30.143Z,9.99
2022-11-16T11:07:27.722Z,10.04
2022-11-16T11:10:25.288Z,10.10
2022-11-16T11:13:22.725Z,10.15
2022-11-16T11:16:20.681Z,10.18
2022-11-16T11:19:18.193Z,10.20
2022-11-16T11:22:15.910Z,10.21
2022-11-16T11:25:13.494Z,10.23
2022-11-16T11:28:10.961Z,10.26
2022-11-16T11:31:08.434Z,10.31
2022-11-16T11:34:05.869Z,10.35
2022-11-16T11:37:03.495Z,10.39
2022-11-16T11:40:00.962Z,10.43
2022-11-16T11:42:58.710Z,10.48
2022-11-16T11:45:56.169Z,10.53
2022-11-16T11:48:53.681Z,10.57
2022-11-16T11:51:51.176Z,10.58
2022-11-16T11:54:48.768Z,10.56
2022-11-16T11:57:46.240Z,10.55
2022-11-16T12:00:43.697Z,10.53
2022-11-16T12:03:41.169Z,10.44
2022-11-16T12:06:43.631Z,10.34
2022-11-16T12:09:41.950Z,10.21
2022-11-16T12:12:39.439Z,10.12
2022-11-16T12:15:36.907Z,10.05
2022-11-16T12:18:34.353Z,9.98
2022-11-16T12:21:31.825Z,9.92
2022-11-16T12:24:29.265Z,9.87
2022-11-16T12:27:27.467Z,9.81
2022-11-16T12:30:24.935Z,9.76
2022-11-16T12:33:23.807Z,9.74
2022-11-16T12:36:21.268Z,9.70
2022-11-16T12:39:18.773Z,9.70
2022-11-16T12:42:16.276Z,9.70
2022-11-16T12:45:14.529Z,9.70
2022-11-16T12:48:11.992Z,9.70
2022-11-16T12:51:09.854Z,9.70
2022-11-16T12:54:07.317Z,9.72
2022-11-16T12:57:04.816Z,9.72
2022-11-16T13:00:02.267Z,9.72
2022-11-16T13:03:00.220Z,9.70
2022-11-16T13:05:57.682Z,9.69
2022-11-16T13:08:55.280Z,9.68
2022-11-16T13:11:52.732Z,9.67
2022-11-16T13:14:51.703Z,9.67
2022-11-16T13:17:49.178Z,9.68
2022-11-16T13:20:46.642Z,9.70
2022-11-16T13:23:44.175Z,9.78
2022-11-16T13:26:41.916Z,9.89
2022-11-16T13:29:39.362Z,9.99
2022-11-16T13:32:36.851Z,10.09
2022-11-16T13:35:34.313Z,10.19
2022-11-16T13:38:32.088Z,10.27
2022-11-16T13:41:30.136Z,10.35
2022-11-16T13:44:27.630Z,10.43
2022-11-16T13:47:25.073Z,10.48
2022-11-16T13:50:22.535Z,10.52
2022-11-16T13:54:10.885Z,10.54
2022-11-16T13:56:37.482Z,10.51
2022-11-16T13:59:34.947Z,10.48
2022-11-16T14:02:32.584Z,10.46
2022-11-16T14:05:30.036Z,10.41
2022-11-16T14:08:27.515Z,10.39
2022-11-16T14:11:24.965Z,10.34
2022-11-16T14:14:22.410Z,10.28
2022-11-16T14:17:19.851Z,10.25
2022-11-16T14:20:22.203Z,10.21
2022-11-16T14:23:19.846Z,10.17
2022-11-16T14:26:17.334Z,10.12
2022-11-16T14:29:15.509Z,10.10
2022-11-16T14:32:12.944Z,10.04
2022-11-16T14:35:10.495Z,10.00
2022-11-16T14:38:07.942Z,9.95
2022-11-16T14:41:05.399Z,9.91
2022-11-16T14:44:02.832Z,9.89
2022-11-16T14:47:00.287Z,9.88
2022-11-16T14:49:57.740Z,9.86
2022-11-16T14:52:55.173Z,9.83
2022-11-16T14:55:52.765Z,9.79
2022-11-16T14:58:50.220Z,9.77
2022-11-16T15:01:47.693Z,9.73
2022-11-16T15:04:45.184Z,9.69
2022-11-16T15:07:42.716Z,9.64
2022-11-16T15:10:40.196Z,9.59
2022-11-16T15:13:37.871Z,9.56
2022-11-16T15:16:35.331Z,9.54
2022-11-16T15:19:33.256Z,9.52
2022-11-16T15:22:30.754Z,9.50
2022-11-16T15:25:28.206Z,9.47
2022-11-16T15:28:26.576Z,9.44
2022-11-16T15:31:24.285Z,9.43
2022-11-16T15:34:24.888Z,9.41
2022-11-16T15:37:22.356Z,9.39
2022-11-16T15:40:19.805Z,9.38
2022-11-16T15:43:18.149Z,9.38
2022-11-16T15:46:15.626Z,9.39
2022-11-16T15:49:13.074Z,9.38
2022-11-16T15:52:10.816Z,9.37
2022-11-16T15:55:08.256Z,9.35
2022-11-16T15:58:07.364Z,9.31
2022-11-16T16:01:04.956Z,9.28
2022-11-16T16:04:02.447Z,9.27
2022-11-16T16:06:59.992Z,9.27
2022-11-16T16:09:59.636Z,9.25
2022-11-16T16:12:57.109Z,9.24
2022-11-16T16:15:56.975Z,9.24
2022-11-16T16:18:54.454Z,9.25
2022-11-16T16:21:53.775Z,9.24
2022-11-16T16:24:51.228Z,9.23
2022-11-16T16:27:48.941Z,9.21
2022-11-16T16:30:46.452Z,9.19
2022-11-16T16:33:44.511Z,9.18
2022-11-16T16:36:42.391Z,9.16
2022-11-16T16:39:40.256Z,9.16
2022-11-16T16:42:37.711Z,9.17
2022-11-16T16:45:35.547Z,9.19
2022-11-16T16:48:33.460Z,9.20
2022-11-16T16:51:30.900Z,9.24
2022-11-16T16:54:29.080Z,9.26
2022-11-16T16:57:27.007Z,9.27
2022-11-16T17:00:25.236Z,9.27
2022-11-16T17:03:24.264Z,9.27
2022-11-16T17:06:21.895Z,9.28
2022-11-16T17:09:19.444Z,9.26
2022-11-16T17:12:17.893Z,9.26
2022-11-16T17:15:19.378Z,9.25
2022-11-16T17:18:18.275Z,9.23
2022-11-16T17:21:16.860Z,9.21
2022-11-16T17:24:15.392Z,9.21
2022-11-16T17:27:14.302Z,9.21
2022-11-16T17:30:12.415Z,9.21
2022-11-16T17:33:10.536Z,9.21
2022-11-16T17:36:10.833Z,9.19
2022-11-16T17:39:08.605Z,9.21
2022-11-16T17:42:06.103Z,9.21
2022-11-16T17:45:05.678Z,9.22
2022-11-16T17:48:04.130Z,9.22
2022-11-16T17:51:02.711Z,9.21
2022-11-16T17:54:00.774Z,9.21
2022-11-16T17:56:59.201Z,9.21
2022-11-16T17:59:57.371Z,9.21
2022-11-16T18:02:55.513Z,9.20
2022-11-16T18:05:54.003Z,9.18
2022-11-16T18:08:52.390Z,9.19
2022-11-16T18:11:50.975Z,9.19
2022-11-16T18:15:13.373Z,9.20
2022-11-16T18:18:07.923Z,9.21
2022-11-16T18:21:06.388Z,9.21
2022-11-16T18:24:05.419Z,9.21
2022-11-16T18:27:04.075Z,9.21
2022-11-16T18:30:02.558Z,9.22
2022-11-16T18:33:00.873Z,9.20
2022-11-16T18:36:01.475Z,9.20
2022-11-16T18:38:59.932Z,9.18
2022-11-16T18:41:58.389Z,9.16
2022-11-16T18:44:57.427Z,9.15
2022-11-16T18:47:56.081Z,9.15
2022-11-16T18:50:54.813Z,9.15
2022-11-16T18:53:52.951Z,9.14
2022-11-16T18:56:53.294Z,9.15
2022-11-16T18:59:51.380Z,9.14
2022-11-16T19:02:49.891Z,9.14
2022-11-16T19:05:48.370Z,9.15
2022-11-16T19:08:50.506Z,9.14
2022-11-16T19:11:52.546Z,9.13
2022-11-16T19:14:52.510Z,9.12
2022-11-16T19:18:19.861Z,9.10
2022-11-16T19:21:12.279Z,9.08
2022-11-16T19:27:24.069Z,9.09
2022-11-16T19:30:23.415Z,9.09
2022-11-16T19:33:22.824Z,9.08
2022-11-16T19:36:21.050Z,9.10
2022-11-16T19:39:19.123Z,9.14
2022-11-16T19:42:17.654Z,9.16
2022-11-16T19:45:16.340Z,9.16
2022-11-16T19:48:14.925Z,9.16
2022-11-16T19:51:13.026Z,9.16
2022-11-16T19:54:16.089Z,9.16
2022-11-16T19:57:16.260Z,9.15
2022-11-16T20:00:15.442Z,9.15
2022-11-16T20:03:14.405Z,9.14
2022-11-16T20:06:12.923Z,9.14
2022-11-16T20:09:12.703Z,9.12
2022-11-16T20:12:10.708Z,9.12
2022-11-16T20:15:09.360Z,9.11
2022-11-16T20:18:07.735Z,9.11
2022-11-16T20:21:07.969Z,9.11
2022-11-16T20:24:07.406Z,9.10
2022-11-16T20:27:06.469Z,9.10
2022-11-16T20:30:09.298Z,9.11
2022-11-16T20:33:08.151Z,9.10
2022-11-16T20:36:06.222Z,9.10
2022-11-16T20:39:04.398Z,9.10
2022-11-16T20:42:02.987Z,9.11
2022-11-16T20:45:02.693Z,9.11
2022-11-16T20:48:02.914Z,9.12
2022-11-16T20:51:00.988Z,9.12
2022-11-16T20:54:00.275Z,9.12
2022-11-16T20:57:00.206Z,9.13
2022-11-16T20:59:57.823Z,9.11
2022-11-16T21:02:56.359Z,9.11
2022-11-16T21:05:54.844Z,9.12
2022-11-16T21:08:52.927Z,9.13
2022-11-16T21:12:08.096Z,9.14
2022-11-16T21:15:05.562Z,9.14
2022-11-16T21:18:03.041Z,9.15
2022-11-16T21:21:00.755Z,9.14
2022-11-16T21:23:58.281Z,9.13
2022-11-16T21:26:55.726Z,9.10
2022-11-16T21:29:53.182Z,9.09
2022-11-16T21:32:50.722Z,9.10
2022-11-16T21:35:48.205Z,9.12
2022-11-16T21:38:45.666Z,9.12
2022-11-16T21:41:46.176Z,9.12
2022-11-16T21:44:43.636Z,9.13
2022-11-16T21:47:41.107Z,9.12
2022-11-16T21:50:38.552Z,9.12
2022-11-16T21:53:37.646Z,9.12
2022-11-16T21:56:35.356Z,9.11
2022-11-16T21:59:32.853Z,9.12
2022-11-16T22:02:30.304Z,9.13
2022-11-16T22:05:45.692Z,9.12
2022-11-16T22:08:43.210Z,9.10
2022-11-16T22:11:40.655Z,9.10
2022-11-16T22:14:38.147Z,9.08
2022-11-16T22:17:35.600Z,9.07
2022-11-16T22:20:33.055Z,9.09
2022-11-16T22:23:30.512Z,9.13
2022-11-16T22:26:28.015Z,9.15
2022-11-16T22:29:25.490Z,9.17
2022-11-16T22:32:22.944Z,9.18
2022-11-16T22:35:20.395Z,9.19
2022-11-16T22:38:17.847Z,9.20
2022-11-16T22:41:15.306Z,9.19
2022-11-16T22:44:12.744Z,9.18
2022-11-16T22:47:10.195Z,9.16
2022-11-16T22:50:07.653Z,9.16
2022-11-16T22:53:05.110Z,9.16
2022-11-16T22:56:02.594Z,9.17
2022-11-16T22:59:00.824Z,9.17
2022-11-16T23:02:02.914Z,9.17
2022-11-16T23:05:00.379Z,9.17
2022-11-16T23:07:58.282Z,9.16
2022-11-16T23:11:09.608Z,9.16
2022-11-16T23:14:24.659Z,9.16
2022-11-16T23:17:22.129Z,9.16
2022-11-16T23:20:37.153Z,9.17
2022-11-16T23:23:52.998Z,9.17
2022-11-16T23:27:08.241Z,9.15
2022-11-16T23:30:10.950Z,9.13
2022-11-16T23:33:10.081Z,9.14
2022-11-16T23:36:07.885Z,9.14
2022-11-16T23:39:05.358Z,9.15
2022-11-16T23:42:20.929Z,9.14
2022-11-16T23:45:18.619Z,9.13
2022-11-16T23:48:16.070Z,9.13
2022-11-16T23:51:13.521Z,9.13
2022-11-16T23:54:10.983Z,9.14
2022-11-16T23:57:08.465Z,9.14
